sensor_id;sensor_type;location;lat;lon;timestamp;temperature;humidity
61412;DHT22;47278;49.732;7.690;2023-02-08T00:02:15;-3.90;99.90
61412;DHT22;47278;49.732;7.690;2023-02-08T00:04:40;-3.80;99.90
61412;DHT22;47278;49.732;7.690;2023-02-08T00:07:06;-0.70;99.90
61412;DHT22;47278;49.732;7.690;2023-02-08T00:09:31;-3.90;99.90
61412;DHT22;47278;49.732;7.690;2023-02-08T00:11:57;-3.60;99.90
61412;DHT22;47278;49.732;7.690;2023-02-08T00:14:22;-3.90;99.90
61412;DHT22;47278;49.732;7.690;2023-02-08T00:16:48;-4.00;99.90
61412;DHT22;47278;49.732;7.690;2023-02-08T00:19:13;-4.00;99.90
61412;DHT22;47278;49.732;7.690;2023-02-08T00:21:57;-3.80;99.90
61412;DHT22;47278;49.732;7.690;2023-02-08T00:24:23;-4.00;99.90
61412;DHT22;47278;49.732;7.690;2023-02-08T00:26:49;-4.10;99.90
61412;DHT22;47278;49.732;7.690;2023-02-08T00:29:14;-4.10;99.90
61412;DHT22;47278;49.732;7.690;2023-02-08T00:31:40;-4.10;99.90
61412;DHT22;47278;49.732;7.690;2023-02-08T00:34:05;-4.10;99.90
61412;DHT22;47278;49.732;7.690;2023-02-08T00:36:31;-1.40;99.90
61412;DHT22;47278;49.732;7.690;2023-02-08T00:38:56;-4.00;99.90
61412;DHT22;47278;49.732;7.690;2023-02-08T00:41:22;-4.00;99.90
61412;DHT22;47278;49.732;7.690;2023-02-08T00:43:47;-3.20;99.90
61412;DHT22;47278;49.732;7.690;2023-02-08T00:46:13;-4.10;99.90
61412;DHT22;47278;49.732;7.690;2023-02-08T00:48:38;-3.80;99.90
61412;DHT22;47278;49.732;7.690;2023-02-08T00:51:06;-3.90;99.90
61412;DHT22;47278;49.732;7.690;2023-02-08T00:53:38;-4.20;99.90
61412;DHT22;47278;49.732;7.690;2023-02-08T00:56:04;-4.20;99.90
61412;DHT22;47278;49.732;7.690;2023-02-08T00:58:30;-1.80;99.90
61412;DHT22;47278;49.732;7.690;2023-02-08T01:00:56;-4.20;99.90
61412;DHT22;47278;49.732;7.690;2023-02-08T01:03:22;-4.20;99.90
61412;DHT22;47278;49.732;7.690;2023-02-08T01:05:48;-4.20;99.90
61412;DHT22;47278;49.732;7.690;2023-02-08T01:08:13;-4.20;99.90
61412;DHT22;47278;49.732;7.690;2023-02-08T01:10:39;-4.30;99.90
61412;DHT22;47278;49.732;7.690;2023-02-08T01:13:05;-4.30;99.90
61412;DHT22;47278;49.732;7.690;2023-02-08T01:15:30;-4.30;99.90
61412;DHT22;47278;49.732;7.690;2023-02-08T01:17:56;-4.30;99.90
61412;DHT22;47278;49.732;7.690;2023-02-08T01:20:22;-4.30;99.90
61412;DHT22;47278;49.732;7.690;2023-02-08T01:22:48;-4.40;99.90
61412;DHT22;47278;49.732;7.690;2023-02-08T01:25:13;-4.40;99.90
61412;DHT22;47278;49.732;7.690;2023-02-08T01:27:39;-4.30;99.90
61412;DHT22;47278;49.732;7.690;2023-02-08T01:30:04;-2.10;99.90
61412;DHT22;47278;49.732;7.690;2023-02-08T01:32:30;-4.40;99.90
61412;DHT22;47278;49.732;7.690;2023-02-08T01:34:56;-4.40;99.90
61412;DHT22;47278;49.732;7.690;2023-02-08T01:37:21;-4.40;99.90
61412;DHT22;47278;49.732;7.690;2023-02-08T01:39:47;-4.50;99.90
61412;DHT22;47278;49.732;7.690;2023-02-08T01:42:12;-4.40;99.90
61412;DHT22;47278;49.732;7.690;2023-02-08T01:47:22;-4.40;99.90
61412;DHT22;47278;49.732;7.690;2023-02-08T01:49:48;-4.40;99.90
61412;DHT22;47278;49.732;7.690;2023-02-08T01:52:15;-4.50;99.90
61412;DHT22;47278;49.732;7.690;2023-02-08T01:54:47;-4.50;99.90
61412;DHT22;47278;49.732;7.690;2023-02-08T01:57:14;-4.50;99.90
61412;DHT22;47278;49.732;7.690;2023-02-08T01:59:41;-4.60;99.90
61412;DHT22;47278;49.732;7.690;2023-02-08T02:02:08;-4.30;99.90
61412;DHT22;47278;49.732;7.690;2023-02-08T02:04:35;-4.60;99.90
61412;DHT22;47278;49.732;7.690;2023-02-08T02:07:01;-4.60;99.90
61412;DHT22;47278;49.732;7.690;2023-02-08T02:12:00;-4.60;99.90
61412;DHT22;47278;49.732;7.690;2023-02-08T02:14:26;-4.50;99.90
61412;DHT22;47278;49.732;7.690;2023-02-08T02:16:52;-4.50;99.90
61412;DHT22;47278;49.732;7.690;2023-02-08T02:19:32;-4.60;99.90
61412;DHT22;47278;49.732;7.690;2023-02-08T02:27:28;-4.70;99.90
61412;DHT22;47278;49.732;7.690;2023-02-08T02:32:33;-4.80;99.90
61412;DHT22;47278;49.732;7.690;2023-02-08T02:37:58;-4.80;99.90
61412;DHT22;47278;49.732;7.690;2023-02-08T02:43:17;-4.80;99.90
61412;DHT22;47278;49.732;7.690;2023-02-08T02:46:21;-4.90;99.90
61412;DHT22;47278;49.732;7.690;2023-02-08T02:51:39;-4.90;99.90
61412;DHT22;47278;49.732;7.690;2023-02-08T02:54:12;-2.40;99.90
61412;DHT22;47278;49.732;7.690;2023-02-08T02:56:38;-4.90;99.90
61412;DHT22;47278;49.732;7.690;2023-02-08T02:59:07;-4.90;99.90
61412;DHT22;47278;49.732;7.690;2023-02-08T03:01:34;-4.90;99.90
61412;DHT22;47278;49.732;7.690;2023-02-08T03:03:59;-4.90;99.90
61412;DHT22;47278;49.732;7.690;2023-02-08T03:11:56;-4.80;99.90
61412;DHT22;47278;49.732;7.690;2023-02-08T03:14:40;-4.90;99.90
61412;DHT22;47278;49.732;7.690;2023-02-08T03:17:18;-4.90;99.90
61412;DHT22;47278;49.732;7.690;2023-02-08T03:20:02;-4.90;99.90
61412;DHT22;47278;49.732;7.690;2023-02-08T03:22:49;-4.90;99.90
61412;DHT22;47278;49.732;7.690;2023-02-08T03:25:21;-5.00;99.90
61412;DHT22;47278;49.732;7.690;2023-02-08T03:27:51;-5.10;99.90
61412;DHT22;47278;49.732;7.690;2023-02-08T03:33:05;-5.10;99.90
61412;DHT22;47278;49.732;7.690;2023-02-08T03:40:34;-5.00;99.90
61412;DHT22;47278;49.732;7.690;2023-02-08T03:43:02;-5.00;99.90
61412;DHT22;47278;49.732;7.690;2023-02-08T03:45:30;-5.00;99.90
61412;DHT22;47278;49.732;7.690;2023-02-08T03:47:57;-4.70;99.90
61412;DHT22;47278;49.732;7.690;2023-02-08T03:50:24;-5.10;99.90
61412;DHT22;47278;49.732;7.690;2023-02-08T03:52:51;-5.00;99.90
61412;DHT22;47278;49.732;7.690;2023-02-08T03:55:21;-5.10;99.90
61412;DHT22;47278;49.732;7.690;2023-02-08T03:57:53;-5.00;99.90
61412;DHT22;47278;49.732;7.690;2023-02-08T04:00:20;-5.10;99.90
61412;DHT22;47278;49.732;7.690;2023-02-08T04:02:56;-5.10;99.90
61412;DHT22;47278;49.732;7.690;2023-02-08T04:05:23;-5.10;99.90
61412;DHT22;47278;49.732;7.690;2023-02-08T04:07:49;-5.00;99.90
61412;DHT22;47278;49.732;7.690;2023-02-08T04:10:15;-5.10;99.90
61412;DHT22;47278;49.732;7.690;2023-02-08T04:12:41;-5.10;99.90
61412;DHT22;47278;49.732;7.690;2023-02-08T04:15:07;-5.10;99.90
61412;DHT22;47278;49.732;7.690;2023-02-08T04:17:33;-5.10;99.90
61412;DHT22;47278;49.732;7.690;2023-02-08T04:19:58;-5.10;99.90
61412;DHT22;47278;49.732;7.690;2023-02-08T04:22:24;-5.10;99.90
61412;DHT22;47278;49.732;7.690;2023-02-08T04:24:50;-3.70;99.90
61412;DHT22;47278;49.732;7.690;2023-02-08T04:27:15;-5.30;99.90
61412;DHT22;47278;49.732;7.690;2023-02-08T04:29:41;-5.30;99.90
61412;DHT22;47278;49.732;7.690;2023-02-08T04:32:07;-5.20;99.90
61412;DHT22;47278;49.732;7.690;2023-02-08T04:34:39;-5.20;99.90
61412;DHT22;47278;49.732;7.690;2023-02-08T04:37:05;-5.30;99.90
61412;DHT22;47278;49.732;7.690;2023-02-08T04:39:30;-5.30;99.90
61412;DHT22;47278;49.732;7.690;2023-02-08T04:41:56;-5.30;99.90
61412;DHT22;47278;49.732;7.690;2023-02-08T04:44:21;-5.30;99.90
61412;DHT22;47278;49.732;7.690;2023-02-08T04:46:47;-5.30;99.90
61412;DHT22;47278;49.732;7.690;2023-02-08T04:49:13;-5.20;99.90
61412;DHT22;47278;49.732;7.690;2023-02-08T04:51:38;-5.30;99.90
61412;DHT22;47278;49.732;7.690;2023-02-08T04:54:04;-5.40;99.90
61412;DHT22;47278;49.732;7.690;2023-02-08T04:56:29;-5.40;99.90
61412;DHT22;47278;49.732;7.690;2023-02-08T04:58:55;-5.40;99.90
61412;DHT22;47278;49.732;7.690;2023-02-08T05:01:20;-5.20;99.90
61412;DHT22;47278;49.732;7.690;2023-02-08T05:03:46;-5.40;99.90
61412;DHT22;47278;49.732;7.690;2023-02-08T05:06:11;-4.10;99.90
61412;DHT22;47278;49.732;7.690;2023-02-08T05:08:37;-5.20;99.90
61412;DHT22;47278;49.732;7.690;2023-02-08T05:11:03;-5.50;99.90
61412;DHT22;47278;49.732;7.690;2023-02-08T05:13:28;-5.40;99.90
61412;DHT22;47278;49.732;7.690;2023-02-08T05:15:54;-5.40;99.90
61412;DHT22;47278;49.732;7.690;2023-02-08T05:18:20;-5.40;99.90
61412;DHT22;47278;49.732;7.690;2023-02-08T05:20:52;-5.40;99.90
61412;DHT22;47278;49.732;7.690;2023-02-08T05:23:17;-5.40;99.90
61412;DHT22;47278;49.732;7.690;2023-02-08T05:25:43;-5.30;99.90
61412;DHT22;47278;49.732;7.690;2023-02-08T05:28:09;-5.40;99.90
61412;DHT22;47278;49.732;7.690;2023-02-08T05:30:35;-5.50;99.90
61412;DHT22;47278;49.732;7.690;2023-02-08T05:33:02;-5.40;99.90
61412;DHT22;47278;49.732;7.690;2023-02-08T05:35:27;-5.40;99.90
61412;DHT22;47278;49.732;7.690;2023-02-08T05:37:53;-5.50;99.90
61412;DHT22;47278;49.732;7.690;2023-02-08T05:40:18;-4.90;99.90
61412;DHT22;47278;49.732;7.690;2023-02-08T05:42:44;-5.50;99.90
61412;DHT22;47278;49.732;7.690;2023-02-08T05:45:09;-5.60;99.90
61412;DHT22;47278;49.732;7.690;2023-02-08T05:47:35;-5.60;99.90
61412;DHT22;47278;49.732;7.690;2023-02-08T05:50:00;-5.60;99.90
61412;DHT22;47278;49.732;7.690;2023-02-08T05:52:26;-5.60;99.90
61412;DHT22;47278;49.732;7.690;2023-02-08T05:54:51;-5.50;99.90
61412;DHT22;47278;49.732;7.690;2023-02-08T05:57:17;-5.50;99.90
61412;DHT22;47278;49.732;7.690;2023-02-08T05:59:43;-5.50;99.90
61412;DHT22;47278;49.732;7.690;2023-02-08T06:02:08;-5.60;99.90
61412;DHT22;47278;49.732;7.690;2023-02-08T06:04:34;-5.60;99.90
61412;DHT22;47278;49.732;7.690;2023-02-08T06:06:59;-5.60;99.90
61412;DHT22;47278;49.732;7.690;2023-02-08T06:09:25;-5.50;99.90
61412;DHT22;47278;49.732;7.690;2023-02-08T06:11:50;-5.50;99.90
61412;DHT22;47278;49.732;7.690;2023-02-08T06:14:16;-5.50;99.90
61412;DHT22;47278;49.732;7.690;2023-02-08T06:16:41;-5.60;99.90
61412;DHT22;47278;49.732;7.690;2023-02-08T06:19:07;-5.60;99.90
61412;DHT22;47278;49.732;7.690;2023-02-08T06:21:32;-5.60;99.90
61412;DHT22;47278;49.732;7.690;2023-02-08T06:23:58;-5.50;99.90
61412;DHT22;47278;49.732;7.690;2023-02-08T06:26:24;-5.50;99.90
61412;DHT22;47278;49.732;7.690;2023-02-08T06:28:49;-5.60;99.90
61412;DHT22;47278;49.732;7.690;2023-02-08T06:31:15;-5.50;99.90
61412;DHT22;47278;49.732;7.690;2023-02-08T06:33:40;-5.50;99.90
61412;DHT22;47278;49.732;7.690;2023-02-08T06:36:06;-5.20;99.90
61412;DHT22;47278;49.732;7.690;2023-02-08T06:38:31;-5.40;99.90
61412;DHT22;47278;49.732;7.690;2023-02-08T06:40:57;-5.50;99.90
61412;DHT22;47278;49.732;7.690;2023-02-08T06:43:23;-4.50;99.90
61412;DHT22;47278;49.732;7.690;2023-02-08T06:45:48;-5.40;99.90
61412;DHT22;47278;49.732;7.690;2023-02-08T06:48:14;-5.50;99.90
61412;DHT22;47278;49.732;7.690;2023-02-08T06:50:39;-5.50;99.90
61412;DHT22;47278;49.732;7.690;2023-02-08T06:53:05;-5.60;99.90
61412;DHT22;47278;49.732;7.690;2023-02-08T06:55:30;-5.60;99.90
61412;DHT22;47278;49.732;7.690;2023-02-08T06:57:56;-5.50;99.90
61412;DHT22;47278;49.732;7.690;2023-02-08T07:00:22;-5.50;99.90
61412;DHT22;47278;49.732;7.690;2023-02-08T07:02:48;-5.50;99.90
61412;DHT22;47278;49.732;7.690;2023-02-08T07:05:13;-5.50;99.90
61412;DHT22;47278;49.732;7.690;2023-02-08T07:07:39;-5.50;99.90
61412;DHT22;47278;49.732;7.690;2023-02-08T07:10:05;-5.60;99.90
61412;DHT22;47278;49.732;7.690;2023-02-08T07:12:34;-5.50;99.90
61412;DHT22;47278;49.732;7.690;2023-02-08T07:14:59;-5.50;99.90
61412;DHT22;47278;49.732;7.690;2023-02-08T07:17:25;-5.50;99.90
61412;DHT22;47278;49.732;7.690;2023-02-08T07:19:51;-2.20;99.90
61412;DHT22;47278;49.732;7.690;2023-02-08T07:22:16;-5.40;99.90
61412;DHT22;47278;49.732;7.690;2023-02-08T07:24:42;-4.90;99.90
61412;DHT22;47278;49.732;7.690;2023-02-08T07:27:08;-5.30;99.90
61412;DHT22;47278;49.732;7.690;2023-02-08T07:29:34;-3.00;99.90
61412;DHT22;47278;49.732;7.690;2023-02-08T07:32:00;-5.30;99.90
61412;DHT22;47278;49.732;7.690;2023-02-08T07:34:30;-5.30;99.90
61412;DHT22;47278;49.732;7.690;2023-02-08T07:36:56;-5.30;99.90
61412;DHT22;47278;49.732;7.690;2023-02-08T07:39:21;-5.30;99.90
61412;DHT22;47278;49.732;7.690;2023-02-08T07:41:47;-5.20;99.90
61412;DHT22;47278;49.732;7.690;2023-02-08T07:44:12;-5.20;99.90
61412;DHT22;47278;49.732;7.690;2023-02-08T07:46:38;-5.10;99.90
61412;DHT22;47278;49.732;7.690;2023-02-08T07:49:04;-5.10;99.90
61412;DHT22;47278;49.732;7.690;2023-02-08T07:51:30;-5.10;99.90
61412;DHT22;47278;49.732;7.690;2023-02-08T07:53:55;-5.10;99.90
61412;DHT22;47278;49.732;7.690;2023-02-08T07:56:21;-5.00;99.90
61412;DHT22;47278;49.732;7.690;2023-02-08T07:58:47;-5.00;99.90
61412;DHT22;47278;49.732;7.690;2023-02-08T08:01:12;-4.80;99.90
61412;DHT22;47278;49.732;7.690;2023-02-08T08:03:38;-4.70;99.90
61412;DHT22;47278;49.732;7.690;2023-02-08T08:06:03;-4.70;99.90
61412;DHT22;47278;49.732;7.690;2023-02-08T08:08:29;-4.70;99.90
61412;DHT22;47278;49.732;7.690;2023-02-08T08:10:54;-4.60;99.90
61412;DHT22;47278;49.732;7.690;2023-02-08T08:13:21;-4.60;99.90
61412;DHT22;47278;49.732;7.690;2023-02-08T08:15:47;-4.60;99.90
61412;DHT22;47278;49.732;7.690;2023-02-08T08:18:12;-4.60;99.90
61412;DHT22;47278;49.732;7.690;2023-02-08T08:20:38;-4.50;99.90
61412;DHT22;47278;49.732;7.690;2023-02-08T08:23:04;-4.30;99.90
61412;DHT22;47278;49.732;7.690;2023-02-08T08:25:29;-4.30;99.90
61412;DHT22;47278;49.732;7.690;2023-02-08T08:27:55;-4.20;99.90
61412;DHT22;47278;49.732;7.690;2023-02-08T08:30:21;-3.50;99.90
61412;DHT22;47278;49.732;7.690;2023-02-08T08:32:46;-4.00;99.90
61412;DHT22;47278;49.732;7.690;2023-02-08T08:35:12;-3.90;99.90
61412;DHT22;47278;49.732;7.690;2023-02-08T08:37:37;-3.90;99.90
61412;DHT22;47278;49.732;7.690;2023-02-08T08:40:03;-3.80;99.90
61412;DHT22;47278;49.732;7.690;2023-02-08T08:42:31;-3.70;99.90
61412;DHT22;47278;49.732;7.690;2023-02-08T08:44:57;-3.50;99.90
61412;DHT22;47278;49.732;7.690;2023-02-08T08:47:22;-3.40;99.90
61412;DHT22;47278;49.732;7.690;2023-02-08T08:49:48;-3.20;99.90
61412;DHT22;47278;49.732;7.690;2023-02-08T08:52:13;-3.10;99.90
61412;DHT22;47278;49.732;7.690;2023-02-08T08:54:39;-3.00;99.90
61412;DHT22;47278;49.732;7.690;2023-02-08T08:57:08;-2.80;99.90
61412;DHT22;47278;49.732;7.690;2023-02-08T08:59:33;-2.70;99.90
61412;DHT22;47278;49.732;7.690;2023-02-08T09:01:59;-2.50;99.90
61412;DHT22;47278;49.732;7.690;2023-02-08T09:04:24;-2.30;99.90
61412;DHT22;47278;49.732;7.690;2023-02-08T09:06:50;-2.10;99.90
61412;DHT22;47278;49.732;7.690;2023-02-08T09:09:16;-2.00;99.90
61412;DHT22;47278;49.732;7.690;2023-02-08T09:11:42;-1.30;99.90
61412;DHT22;47278;49.732;7.690;2023-02-08T09:14:08;-1.50;99.90
61412;DHT22;47278;49.732;7.690;2023-02-08T09:16:33;-1.20;99.90
61412;DHT22;47278;49.732;7.690;2023-02-08T09:19:06;-0.90;99.90
61412;DHT22;47278;49.732;7.690;2023-02-08T09:21:32;-0.70;99.90
61412;DHT22;47278;49.732;7.690;2023-02-08T09:23:57;-0.40;99.90
61412;DHT22;47278;49.732;7.690;2023-02-08T09:26:23;-0.10;99.90
61412;DHT22;47278;49.732;7.690;2023-02-08T09:28:50;0.10;99.90
61412;DHT22;47278;49.732;7.690;2023-02-08T09:31:29;0.30;99.90
61412;DHT22;47278;49.732;7.690;2023-02-08T09:33:56;0.50;99.90
61412;DHT22;47278;49.732;7.690;2023-02-08T09:36:22;0.50;99.90
61412;DHT22;47278;49.732;7.690;2023-02-08T09:38:49;0.70;99.90
61412;DHT22;47278;49.732;7.690;2023-02-08T09:46:23;1.80;99.90
61412;DHT22;47278;49.732;7.690;2023-02-08T09:48:51;1.00;99.90
61412;DHT22;47278;49.732;7.690;2023-02-08T09:51:22;1.70;99.90
61412;DHT22;47278;49.732;7.690;2023-02-08T09:53:57;1.80;99.90
61412;DHT22;47278;49.732;7.690;2023-02-08T09:56:28;2.00;99.90
61412;DHT22;47278;49.732;7.690;2023-02-08T09:58:55;2.20;99.90
61412;DHT22;47278;49.732;7.690;2023-02-08T10:01:22;2.20;99.90
61412;DHT22;47278;49.732;7.690;2023-02-08T10:03:49;2.00;99.90
61412;DHT22;47278;49.732;7.690;2023-02-08T10:06:17;2.30;99.90
61412;DHT22;47278;49.732;7.690;2023-02-08T10:08:43;2.10;99.90
61412;DHT22;47278;49.732;7.690;2023-02-08T10:11:31;2.40;99.90
61412;DHT22;47278;49.732;7.690;2023-02-08T10:14:03;0.80;99.90
61412;DHT22;47278;49.732;7.690;2023-02-08T10:16:51;2.60;99.90
61412;DHT22;47278;49.732;7.690;2023-02-08T10:21:51;2.70;99.90
61412;DHT22;47278;49.732;7.690;2023-02-08T10:27:41;3.00;99.90
61412;DHT22;47278;49.732;7.690;2023-02-08T10:30:11;2.90;99.90
61412;DHT22;47278;49.732;7.690;2023-02-08T10:35:09;2.90;99.90
61412;DHT22;47278;49.732;7.690;2023-02-08T10:37:36;3.10;99.90
61412;DHT22;47278;49.732;7.690;2023-02-08T10:45:35;3.50;99.90
61412;DHT22;47278;49.732;7.690;2023-02-08T10:48:09;3.40;99.90
61412;DHT22;47278;49.732;7.690;2023-02-08T10:50:41;3.40;99.90
61412;DHT22;47278;49.732;7.690;2023-02-08T10:53:13;3.50;99.90
61412;DHT22;47278;49.732;7.690;2023-02-08T10:55:44;3.70;99.90
61412;DHT22;47278;49.732;7.690;2023-02-08T10:58:17;4.10;99.90
61412;DHT22;47278;49.732;7.690;2023-02-08T11:00:43;4.20;99.90
61412;DHT22;47278;49.732;7.690;2023-02-08T11:03:22;4.00;99.90
61412;DHT22;47278;49.732;7.690;2023-02-08T11:05:48;4.40;99.90
61412;DHT22;47278;49.732;7.690;2023-02-08T11:08:18;4.50;99.90
61412;DHT22;47278;49.732;7.690;2023-02-08T11:13:19;6.50;99.90
61412;DHT22;47278;49.732;7.690;2023-02-08T11:18:23;4.70;99.90
61412;DHT22;47278;49.732;7.690;2023-02-08T11:20:51;4.70;99.90
61412;DHT22;47278;49.732;7.690;2023-02-08T11:23:21;4.60;99.90
61412;DHT22;47278;49.732;7.690;2023-02-08T11:25:48;4.80;99.90
61412;DHT22;47278;49.732;7.690;2023-02-08T11:28:24;4.80;99.90
61412;DHT22;47278;49.732;7.690;2023-02-08T11:30:57;5.10;99.90
61412;DHT22;47278;49.732;7.690;2023-02-08T11:33:23;5.10;99.90
61412;DHT22;47278;49.732;7.690;2023-02-08T11:35:52;4.80;99.90
61412;DHT22;47278;49.732;7.690;2023-02-08T11:38:18;5.10;99.90
61412;DHT22;47278;49.732;7.690;2023-02-08T11:40:46;5.10;99.90
61412;DHT22;47278;49.732;7.690;2023-02-08T11:43:19;5.00;99.90
61412;DHT22;47278;49.732;7.690;2023-02-08T11:45:45;7.20;99.90
61412;DHT22;47278;49.732;7.690;2023-02-08T11:48:48;5.40;99.90
61412;DHT22;47278;49.732;7.690;2023-02-08T11:51:03;5.50;99.90
61412;DHT22;47278;49.732;7.690;2023-02-08T11:53:31;5.80;99.90
61412;DHT22;47278;49.732;7.690;2023-02-08T11:56:14;5.70;99.90
61412;DHT22;47278;49.732;7.690;2023-02-08T11:58:40;5.60;99.90
61412;DHT22;47278;49.732;7.690;2023-02-08T12:01:16;5.60;99.90
61412;DHT22;47278;49.732;7.690;2023-02-08T12:03:42;5.60;99.90
61412;DHT22;47278;49.732;7.690;2023-02-08T12:13:51;5.50;99.90
61412;DHT22;47278;49.732;7.690;2023-02-08T12:21:45;6.00;99.90
61412;DHT22;47278;49.732;7.690;2023-02-08T12:29:14;6.00;99.90
61412;DHT22;47278;49.732;7.690;2023-02-08T12:31:56;6.00;99.90
61412;DHT22;47278;49.732;7.690;2023-02-08T12:34:26;6.20;99.90
61412;DHT22;47278;49.732;7.690;2023-02-08T12:52:54;6.20;99.90
61412;DHT22;47278;49.732;7.690;2023-02-08T12:55:34;6.30;99.90
61412;DHT22;47278;49.732;7.690;2023-02-08T12:58:06;6.50;99.90
61412;DHT22;47278;49.732;7.690;2023-02-08T13:00:36;6.40;99.90
61412;DHT22;47278;49.732;7.690;2023-02-08T13:03:07;6.30;99.90
61412;DHT22;47278;49.732;7.690;2023-02-08T13:05:39;6.30;99.90
61412;DHT22;47278;49.732;7.690;2023-02-08T13:08:25;6.20;99.90
61412;DHT22;47278;49.732;7.690;2023-02-08T13:10:54;6.10;99.90
61412;DHT22;47278;49.732;7.690;2023-02-08T13:13:30;6.60;99.90
61412;DHT22;47278;49.732;7.690;2023-02-08T13:16:17;6.90;99.90
61412;DHT22;47278;49.732;7.690;2023-02-08T13:21:42;6.40;99.90
61412;DHT22;47278;49.732;7.690;2023-02-08T13:24:42;6.40;99.90
61412;DHT22;47278;49.732;7.690;2023-02-08T13:27:00;6.50;99.90
61412;DHT22;47278;49.732;7.690;2023-02-08T13:29:25;6.70;99.90
61412;DHT22;47278;49.732;7.690;2023-02-08T13:32:14;6.90;99.90
61412;DHT22;47278;49.732;7.690;2023-02-08T13:34:40;6.50;99.90
61412;DHT22;47278;49.732;7.690;2023-02-08T13:37:24;6.60;99.90
61412;DHT22;47278;49.732;7.690;2023-02-08T13:39:56;6.60;99.90
61412;DHT22;47278;49.732;7.690;2023-02-08T13:44:52;6.40;99.90
61412;DHT22;47278;49.732;7.690;2023-02-08T13:47:27;6.50;99.90
61412;DHT22;47278;49.732;7.690;2023-02-08T13:49:55;7.10;99.90
61412;DHT22;47278;49.732;7.690;2023-02-08T13:57:54;7.00;99.90
61412;DHT22;47278;49.732;7.690;2023-02-08T14:00:21;6.70;99.90
61412;DHT22;47278;49.732;7.690;2023-02-08T14:03:48;6.80;99.90
61412;DHT22;47278;49.732;7.690;2023-02-08T14:08:15;6.80;99.90
61412;DHT22;47278;49.732;7.690;2023-02-08T14:10:44;6.70;99.90
61412;DHT22;47278;49.732;7.690;2023-02-08T14:13:54;6.70;99.90
61412;DHT22;47278;49.732;7.690;2023-02-08T14:18:54;6.90;99.90
61412;DHT22;47278;49.732;7.690;2023-02-08T14:21:26;6.80;99.90
61412;DHT22;47278;49.732;7.690;2023-02-08T14:24:00;7.10;99.90
61412;DHT22;47278;49.732;7.690;2023-02-08T14:26:27;7.00;99.90
61412;DHT22;47278;49.732;7.690;2023-02-08T14:28:53;7.20;99.90
61412;DHT22;47278;49.732;7.690;2023-02-08T14:31:20;7.30;99.90
61412;DHT22;47278;49.732;7.690;2023-02-08T14:33:53;7.60;99.90
61412;DHT22;47278;49.732;7.690;2023-02-08T14:38:50;8.20;99.90
61412;DHT22;47278;49.732;7.690;2023-02-08T14:44:28;12.40;99.90
61412;DHT22;47278;49.732;7.690;2023-02-08T14:46:46;13.60;99.90
61412;DHT22;47278;49.732;7.690;2023-02-08T14:49:15;14.30;99.90
61412;DHT22;47278;49.732;7.690;2023-02-08T14:51:49;14.60;99.90
61412;DHT22;47278;49.732;7.690;2023-02-08T14:54:18;15.10;99.50
61412;DHT22;47278;49.732;7.690;2023-02-08T14:59:37;15.10;96.40
61412;DHT22;47278;49.732;7.690;2023-02-08T15:02:07;15.60;95.20
61412;DHT22;47278;49.732;7.690;2023-02-08T15:04:40;15.40;93.70
61412;DHT22;47278;49.732;7.690;2023-02-08T15:09:43;14.50;93.60
61412;DHT22;47278;49.732;7.690;2023-02-08T15:12:28;14.00;92.90
61412;DHT22;47278;49.732;7.690;2023-02-08T15:14:54;13.90;92.20
61412;DHT22;47278;49.732;7.690;2023-02-08T15:17:42;14.10;93.80
61412;DHT22;47278;49.732;7.690;2023-02-08T15:20:13;13.60;91.80
61412;DHT22;47278;49.732;7.690;2023-02-08T15:22:40;13.00;93.30
61412;DHT22;47278;49.732;7.690;2023-02-08T15:27:44;7.30;97.70
61412;DHT22;47278;49.732;7.690;2023-02-08T15:33:12;5.80;99.50
61412;DHT22;47278;49.732;7.690;2023-02-08T15:35:38;5.20;99.90
61412;DHT22;47278;49.732;7.690;2023-02-08T15:38:08;4.90;99.90
61412;DHT22;47278;49.732;7.690;2023-02-08T15:40:36;4.90;99.90
61412;DHT22;47278;49.732;7.690;2023-02-08T15:43:11;4.50;99.90
61412;DHT22;47278;49.732;7.690;2023-02-08T15:45:36;4.40;99.90
61412;DHT22;47278;49.732;7.690;2023-02-08T15:48:03;4.20;99.90
61412;DHT22;47278;49.732;7.690;2023-02-08T15:50:29;4.00;99.90
61412;DHT22;47278;49.732;7.690;2023-02-08T15:52:59;3.90;99.90
61412;DHT22;47278;49.732;7.690;2023-02-08T15:55:25;3.70;99.90
61412;DHT22;47278;49.732;7.690;2023-02-08T15:57:54;3.40;99.90
61412;DHT22;47278;49.732;7.690;2023-02-08T16:00:23;3.50;99.90
61412;DHT22;47278;49.732;7.690;2023-02-08T16:02:51;3.20;99.90
61412;DHT22;47278;49.732;7.690;2023-02-08T16:05:20;3.20;99.90
61412;DHT22;47278;49.732;7.690;2023-02-08T16:07:47;3.10;99.90
61412;DHT22;47278;49.732;7.690;2023-02-08T16:10:33;2.80;99.90
61412;DHT22;47278;49.732;7.690;2023-02-08T16:13:02;2.70;99.90
61412;DHT22;47278;49.732;7.690;2023-02-08T16:15:44;2.50;99.90
61412;DHT22;47278;49.732;7.690;2023-02-08T16:18:57;2.50;99.90
61412;DHT22;47278;49.732;7.690;2023-02-08T16:20:57;2.30;99.90
61412;DHT22;47278;49.732;7.690;2023-02-08T16:23:27;2.30;99.90
61412;DHT22;47278;49.732;7.690;2023-02-08T16:25:53;2.10;99.90
61412;DHT22;47278;49.732;7.690;2023-02-08T16:28:31;1.90;99.90
61412;DHT22;47278;49.732;7.690;2023-02-08T16:31:01;2.30;99.90
61412;DHT22;47278;49.732;7.690;2023-02-08T16:33:27;1.50;99.90
61412;DHT22;47278;49.732;7.690;2023-02-08T16:35:54;1.30;99.90
61412;DHT22;47278;49.732;7.690;2023-02-08T16:38:26;1.20;99.90
61412;DHT22;47278;49.732;7.690;2023-02-08T16:40:56;1.10;99.90
61412;DHT22;47278;49.732;7.690;2023-02-08T16:48:33;0.60;99.90
61412;DHT22;47278;49.732;7.690;2023-02-08T16:51:11;0.70;99.90
61412;DHT22;47278;49.732;7.690;2023-02-08T16:53:38;0.40;99.90
61412;DHT22;47278;49.732;7.690;2023-02-08T16:56:06;0.30;99.90
61412;DHT22;47278;49.732;7.690;2023-02-08T16:58:32;0.30;99.90
61412;DHT22;47278;49.732;7.690;2023-02-08T17:00:57;0.20;99.90
61412;DHT22;47278;49.732;7.690;2023-02-08T17:03:24;0.30;99.90
61412;DHT22;47278;49.732;7.690;2023-02-08T17:05:50;0.10;99.90
61412;DHT22;47278;49.732;7.690;2023-02-08T17:08:17;0.10;99.90
61412;DHT22;47278;49.732;7.690;2023-02-08T17:10:43;0.00;99.90
61412;DHT22;47278;49.732;7.690;2023-02-08T17:13:09;-0.10;99.90
61412;DHT22;47278;49.732;7.690;2023-02-08T17:15:36;-0.10;99.90
61412;DHT22;47278;49.732;7.690;2023-02-08T17:18:01;-0.30;99.90
61412;DHT22;47278;49.732;7.690;2023-02-08T17:20:29;-0.30;99.90
61412;DHT22;47278;49.732;7.690;2023-02-08T17:22:55;-0.30;99.90
61412;DHT22;47278;49.732;7.690;2023-02-08T17:25:21;-0.40;99.90
61412;DHT22;47278;49.732;7.690;2023-02-08T17:27:51;-0.50;99.90
61412;DHT22;47278;49.732;7.690;2023-02-08T17:30:21;-0.60;99.90
61412;DHT22;47278;49.732;7.690;2023-02-08T17:32:47;-0.60;99.90
61412;DHT22;47278;49.732;7.690;2023-02-08T17:35:13;-0.60;99.90
61412;DHT22;47278;49.732;7.690;2023-02-08T17:37:44;-0.70;99.90
61412;DHT22;47278;49.732;7.690;2023-02-08T17:40:11;-0.80;99.90
61412;DHT22;47278;49.732;7.690;2023-02-08T17:42:37;-0.90;99.90
61412;DHT22;47278;49.732;7.690;2023-02-08T17:45:05;-1.00;99.90
61412;DHT22;47278;49.732;7.690;2023-02-08T17:47:32;-0.90;99.90
61412;DHT22;47278;49.732;7.690;2023-02-08T17:49:58;-0.90;99.90
61412;DHT22;47278;49.732;7.690;2023-02-08T17:52:23;-0.90;99.90
61412;DHT22;47278;49.732;7.690;2023-02-08T17:54:49;-0.90;99.90